Time;durP1;ratioP1;P1;durP2;ratioP2;P2;SDS_P1;SDS_P2;PMS_P1;PMS_P2;Temp;Humidity;BMP_temperature;BMP_pressure;BME280_temperature;BME280_humidity;BME280_pressure;Samples;Min_cycle;Max_cycle;Signal;HPM_P1;HPM_P2
2022/10/17 00:01:29;;;;;;;6.00;4.73;;;10.50;99.90;9.80;101090;;;;546853;260;24264;-79
2022/10/17 00:03:57;;;;;;;5.50;4.97;;;10.60;99.90;9.80;101093;;;;533775;264;24225;-76
2022/10/17 00:06:25;;;;;;;5.67;5.07;;;10.50;99.90;9.80;101100;;;;533801;264;24227;-76
2022/10/17 00:08:53;;;;;;;5.77;5.27;;;10.50;99.90;9.80;101104;;;;533796;264;24240;-76
2022/10/17 00:11:21;;;;;;;6.30;4.87;;;10.50;99.90;9.70;101103;;;;533422;264;24210;-76
2022/10/17 00:13:49;;;;;;;6.77;5.27;;;10.50;99.90;9.70;101104;;;;550790;260;24205;-77
2022/10/17 00:16:26;;;;;;;6.20;5.43;;;10.50;99.90;9.70;101088;;;;538885;263;24291;-77
2022/10/17 00:18:57;;;;;;;5.80;5.27;;;10.40;99.90;9.60;101084;;;;540864;261;24242;-76
2022/10/17 00:21:22;;;;;;;9.05;7.82;;;10.30;99.90;9.60;101089;;;;528546;265;35985;-76
2022/10/17 00:23:50;;;;;;;7.80;7.07;;;10.40;99.90;9.60;101105;;;;533328;265;24218;-77
2022/10/17 00:26:22;;;;;;;6.60;5.10;;;10.40;99.90;9.60;101106;;;;533194;265;24197;-77
2022/10/17 00:28:46;;;;;;;7.93;6.03;;;10.30;99.90;9.50;101110;;;;540458;261;24231;-78
2022/10/17 00:31:14;;;;;;;6.33;5.67;;;10.30;99.90;9.50;101088;;;;540448;260;24249;-78
2022/10/17 00:33:42;;;;;;;6.40;5.80;;;10.30;99.90;9.50;101092;;;;550529;260;24226;-78
2022/10/17 00:36:15;;;;;;;6.57;5.93;;;10.20;99.90;9.50;101095;;;;533261;265;24202;-76
2022/10/17 00:38:43;;;;;;;6.27;5.67;;;10.20;99.90;9.40;101101;;;;540957;264;24215;-76
2022/10/17 00:41:11;;;;;;;5.93;5.07;;;10.20;99.90;9.40;101093;;;;533576;265;24252;-80
2022/10/17 00:44:00;;;;;;;6.70;5.93;;;10.20;99.90;9.40;101102;;;;551575;260;24176;-76
2022/10/17 00:46:31;;;;;;;8.83;5.87;;;10.10;99.90;9.40;101111;;;;533593;265;24308;-77
2022/10/17 00:48:59;;;;;;;6.30;5.63;;;10.10;99.90;9.30;101108;;;;542825;254;24197;-75
2022/10/17 00:51:31;;;;;;;6.50;5.80;;;10.10;99.90;9.30;101113;;;;564175;250;24236;-77
2022/10/17 00:53:57;;;;;;;6.17;5.37;;;10.10;99.90;9.30;101115;;;;543546;259;24170;-76
2022/10/17 00:56:26;;;;;;;8.50;4.97;;;10.00;99.90;9.30;101111;;;;572386;250;24154;-75
2022/10/17 00:58:54;;;;;;;7.73;5.13;;;10.00;99.90;9.30;101107;;;;554251;255;24162;-76
2022/10/17 01:01:22;;;;;;;7.70;5.67;;;10.00;99.90;9.20;101110;;;;562353;255;24190;-77
2022/10/17 01:03:50;;;;;;;6.27;5.50;;;10.00;99.90;9.20;101122;;;;554194;255;24164;-77
2022/10/17 01:06:19;;;;;;;5.47;4.93;;;9.90;99.90;9.20;101119;;;;554171;255;24161;-77
2022/10/17 01:08:46;;;;;;;6.27;5.67;;;9.90;99.90;9.10;101122;;;;553923;255;24158;-76
2022/10/17 01:11:20;;;;;;;6.67;5.20;;;9.90;99.90;9.10;101122;;;;555009;255;24199;-81
2022/10/17 01:14:06;;;;;;;5.90;4.93;;;9.80;99.90;9.00;101113;;;;563051;255;24192;-80
2022/10/17 01:16:42;;;;;;;7.80;5.77;;;9.80;99.90;9.00;101119;;;;562838;255;24154;-79
2022/10/17 01:19:37;;;;;;;7.77;4.97;;;9.80;99.90;9.00;101119;;;;554535;255;24176;-80
2022/10/17 01:22:26;;;;;;;5.73;5.10;;;9.80;99.90;9.00;101125;;;;548427;255;24160;-78
2022/10/17 01:25:15;;;;;;;6.67;5.43;;;9.80;99.90;9.00;101126;;;;561640;255;24165;-78
2022/10/17 01:28:12;;;;;;;5.97;4.90;;;9.80;99.90;9.00;101143;;;;547012;255;24175;-78
2022/10/17 01:31:16;;;;;;;5.70;5.17;;;9.70;99.90;8.90;101145;;;;561509;251;24272;-77
2022/10/17 01:33:58;;;;;;;7.87;5.30;;;9.70;99.90;8.90;101150;;;;554253;255;24154;-77
2022/10/17 01:36:36;;;;;;;6.17;5.17;;;9.60;99.90;8.80;101136;;;;553546;255;24176;-76
2022/10/17 01:39:04;;;;;;;6.70;5.50;;;9.60;99.90;8.80;101134;;;;553457;255;24171;-77
2022/10/17 01:41:42;;;;;;;8.53;5.53;;;9.60;99.90;8.80;101127;;;;553289;255;24199;-78
2022/10/17 01:44:18;;;;;;;5.23;4.80;;;9.60;99.90;8.80;101130;;;;553592;255;24202;-77
2022/10/17 01:46:46;;;;;;;10.07;5.27;;;9.60;99.90;8.80;101130;;;;552504;255;24163;-77
2022/10/17 01:49:14;;;;;;;5.53;5.00;;;9.50;99.90;8.70;101145;;;;553480;255;24213;-77
2022/10/17 01:51:46;;;;;;;5.07;4.57;;;9.50;99.90;8.70;101146;;;;553978;255;24163;-80
2022/10/17 01:54:23;;;;;;;6.57;5.37;;;9.40;99.90;8.70;101148;;;;554006;255;24165;-82
2022/10/17 01:56:51;;;;;;;7.43;5.30;;;9.50;99.90;8.70;101153;;;;552986;255;24158;-77
2022/10/17 01:59:37;;;;;;;4.47;4.03;;;9.40;99.90;8.60;101166;;;;553582;255;24154;-77
2022/10/17 02:02:06;;;;;;;10.67;5.00;;;9.40;99.90;8.60;101167;;;;555912;254;24166;-81
2022/10/17 02:04:34;;;;;;;6.43;5.40;;;9.40;99.90;8.60;101172;;;;555622;255;24229;-81
2022/10/17 02:07:08;;;;;;;5.47;5.00;;;9.40;99.90;8.60;101164;;;;560707;255;24174;-77
2022/10/17 02:09:36;;;;;;;5.00;4.43;;;9.40;99.90;8.60;101166;;;;562946;255;24543;-78
2022/10/17 02:12:28;;;;;;;7.63;5.00;;;9.30;99.90;8.50;101165;;;;555108;255;25314;-80
2022/10/17 02:15:20;;;;;;;5.97;4.63;;;9.30;99.90;8.50;101177;;;;548678;255;24217;-77
2022/10/17 02:17:48;;;;;;;5.47;4.93;;;9.30;99.90;8.60;101182;;;;562656;255;24161;-81
2022/10/17 02:20:50;;;;;;;5.53;4.60;;;9.30;99.90;8.60;101167;;;;552015;255;24192;-78
2022/10/17 02:23:19;;;;;;;8.43;4.90;;;9.30;99.90;8.50;101164;;;;553981;255;24169;-78
2022/10/17 02:25:49;;;;;;;7.13;6.47;;;9.30;99.90;8.60;101170;;;;548533;255;35689;-76
2022/10/17 02:28:23;;;;;;;5.33;4.83;;;9.30;99.90;8.50;101160;;;;553412;255;24178;-77
2022/10/17 02:30:56;;;;;;;9.57;5.03;;;9.30;99.90;8.50;101173;;;;554353;255;24153;-81
2022/10/17 02:33:46;;;;;;;6.90;5.33;;;9.30;99.90;8.50;101182;;;;562593;255;24228;-81
2022/10/17 02:36:13;;;;;;;5.20;4.70;;;9.20;99.90;8.50;101177;;;;562095;255;24196;-81
2022/10/17 02:38:42;;;;;;;5.97;4.93;;;9.20;99.90;8.50;101180;;;;561717;255;24201;-81
2022/10/17 02:41:10;;;;;;;5.67;5.03;;;9.20;99.90;8.40;101192;;;;561482;255;24209;-78
2022/10/17 02:43:42;;;;;;;7.13;5.10;;;9.10;99.90;8.30;101183;;;;553980;255;24179;-78
2022/10/17 02:46:07;;;;;;;6.13;5.07;;;9.10;99.90;8.30;101188;;;;561349;255;24250;-77
2022/10/17 02:48:40;;;;;;;5.53;4.93;;;9.10;99.90;8.30;101193;;;;562172;255;24263;-77
2022/10/17 02:51:26;;;;;;;6.20;5.60;;;9.10;99.90;8.30;101199;;;;552756;255;24170;-81
2022/10/17 02:54:09;;;;;;;7.93;4.83;;;9.10;99.90;8.30;101198;;;;561547;255;24189;-77
2022/10/17 02:56:37;;;;;;;6.70;5.23;;;9.10;99.90;8.40;101201;;;;553302;255;24181;-77
2022/10/17 02:59:06;;;;;;;5.63;5.00;;;9.10;99.90;8.40;101208;;;;553384;255;24209;-76
2022/10/17 03:01:33;;;;;;;8.27;4.87;;;9.10;99.90;8.40;101206;;;;553157;255;24185;-76
2022/10/17 03:04:08;;;;;;;7.90;4.83;;;9.20;99.90;8.50;101219;;;;553306;255;24171;-76
2022/10/17 03:06:35;;;;;;;6.93;5.33;;;9.20;99.90;8.50;101220;;;;552984;255;24229;-77
2022/10/17 03:09:03;;;;;;;9.93;5.30;;;9.30;99.90;8.60;101221;;;;553115;255;24155;-76
2022/10/17 03:11:31;;;;;;;5.63;4.93;;;9.30;99.90;8.60;101217;;;;553231;255;24194;-77
2022/10/17 03:13:59;;;;;;;7.10;5.60;;;9.40;99.90;8.70;101208;;;;554622;254;24227;-77
2022/10/17 03:16:27;;;;;;;5.60;5.10;;;9.40;99.90;8.60;101217;;;;554274;255;24194;-75
2022/10/17 03:18:56;;;;;;;7.40;5.37;;;9.40;99.90;8.60;101230;;;;553910;255;24151;-77
2022/10/17 03:21:24;;;;;;;7.00;5.63;;;9.40;99.90;8.60;101223;;;;553968;255;24142;-77
2022/10/17 03:23:53;;;;;;;6.47;4.60;;;9.30;99.90;8.60;101233;;;;553682;255;24201;-77
2022/10/17 03:26:21;;;;;;;8.63;4.60;;;9.30;99.90;8.50;101226;;;;553549;255;24156;-77
2022/10/17 03:28:49;;;;;;;5.20;4.70;;;9.30;99.90;8.50;101218;;;;561920;255;24178;-77
2022/10/17 03:31:16;;;;;;;5.17;4.77;;;9.30;99.90;8.50;101225;;;;561464;255;24188;-77
2022/10/17 03:33:44;;;;;;;6.57;4.33;;;9.20;99.90;8.40;101215;;;;553855;255;24204;-77
2022/10/17 03:36:12;;;;;;;4.40;4.00;;;9.20;99.90;8.40;101219;;;;553829;255;24187;-77
2022/10/17 03:38:40;;;;;;;5.17;4.67;;;9.20;99.90;8.40;101210;;;;553787;255;24170;-77
2022/10/17 03:41:08;;;;;;;4.70;4.30;;;9.20;99.90;8.40;101216;;;;553620;255;24175;-77
2022/10/17 03:43:36;;;;;;;4.30;3.87;;;9.20;99.90;8.50;101219;;;;553348;255;24175;-79
2022/10/17 03:46:04;;;;;;;7.67;4.53;;;9.20;99.90;8.50;101216;;;;554738;255;24175;-80
2022/10/17 03:48:33;;;;;;;5.73;3.93;;;9.20;99.90;8.50;101221;;;;554190;255;24190;-80
2022/10/17 03:51:03;;;;;;;7.73;4.63;;;9.20;99.90;8.50;101212;;;;553474;255;24144;-77
2022/10/17 03:53:31;;;;;;;5.77;4.70;;;9.20;99.90;8.50;101219;;;;553105;255;24151;-77
2022/10/17 03:56:14;;;;;;;6.23;4.40;;;9.30;99.90;8.60;101219;;;;553111;255;24201;-78
2022/10/17 03:58:43;;;;;;;8.97;5.60;;;9.30;99.90;8.60;101228;;;;552073;255;24159;-77
2022/10/17 04:01:10;;;;;;;10.87;6.27;;;9.30;99.90;8.60;101223;;;;553524;255;24159;-76
2022/10/17 04:03:38;;;;;;;9.97;5.97;;;9.30;99.90;8.70;101234;;;;560917;253;24221;-76
2022/10/17 04:06:06;;;;;;;9.87;5.63;;;9.40;99.90;8.60;101232;;;;561431;255;24189;-75
2022/10/17 04:08:35;;;;;;;8.50;6.13;;;9.40;99.90;8.70;101255;;;;553307;255;24167;-76
2022/10/17 04:11:03;;;;;;;8.30;6.23;;;9.40;99.90;8.70;101264;;;;553253;255;24190;-76
2022/10/17 04:13:30;;;;;;;8.37;5.40;;;9.40;99.90;8.60;101262;;;;553524;251;24162;-77
2022/10/17 04:15:58;;;;;;;10.23;6.30;;;9.40;99.90;8.60;101264;;;;560934;255;24253;-76
2022/10/17 04:18:29;;;;;;;10.13;7.80;;;9.40;99.90;8.70;101268;;;;548479;255;35748;-77
2022/10/17 04:20:54;;;;;;;6.73;4.93;;;9.40;99.90;8.70;101253;;;;553451;255;24166;-77
2022/10/17 04:23:25;;;;;;;9.90;7.87;;;9.40;99.90;8.70;101246;;;;549060;253;46634;-78
2022/10/17 04:25:50;;;;;;;5.83;5.30;;;9.50;99.90;8.70;101239;;;;554894;254;24211;-79
2022/10/17 04:28:18;;;;;;;10.77;5.43;;;9.50;99.90;8.80;101257;;;;555153;255;24196;-80
2022/10/17 04:30:46;;;;;;;14.37;5.63;;;9.50;99.90;8.80;101248;;;;555001;255;24165;-80
2022/10/17 04:33:14;;;;;;;8.73;4.87;;;9.60;99.90;8.80;101250;;;;554310;255;24152;-77
2022/10/17 04:35:42;;;;;;;5.50;5.00;;;9.60;99.90;8.80;101241;;;;554149;255;24167;-77
2022/10/17 04:38:10;;;;;;;9.60;7.37;;;9.70;99.90;8.90;101261;;;;549242;255;46701;-76
2022/10/17 04:40:38;;;;;;;9.87;5.43;;;9.60;99.90;9.00;101258;;;;554085;255;24205;-76
2022/10/17 04:43:06;;;;;;;5.90;5.07;;;9.80;99.90;9.10;101261;;;;553700;255;24204;-78
2022/10/17 04:45:34;;;;;;;9.57;6.23;;;9.80;99.90;9.20;101252;;;;548747;255;35659;-77
2022/10/17 04:48:03;;;;;;;10.23;5.40;;;10.00;99.90;9.20;101259;;;;553436;255;24140;-77
2022/10/17 04:50:31;;;;;;;9.70;4.40;;;9.90;99.90;9.30;101267;;;;553542;255;24151;-78
2022/10/17 04:52:58;;;;;;;4.73;3.93;;;10.00;99.90;9.30;101274;;;;553411;255;24214;-78
2022/10/17 04:55:26;;;;;;;5.50;4.60;;;10.10;99.90;9.40;101267;;;;561368;255;24174;-77
2022/10/17 04:57:54;;;;;;;14.50;9.30;;;10.10;99.90;9.40;101268;;;;553458;255;24151;-78
2022/10/17 05:00:22;;;;;;;38.10;24.33;;;10.20;99.90;9.50;101281;;;;553758;255;24142;-78
2022/10/17 05:02:51;;;;;;;11.27;6.53;;;10.30;99.90;9.50;101272;;;;553307;255;24165;-83
2022/10/17 05:05:19;;;;;;;14.23;6.40;;;10.20;99.90;9.50;101283;;;;554282;255;24236;-81
2022/10/17 05:07:49;;;;;;;10.53;6.37;;;10.30;99.90;9.60;101282;;;;554305;255;24156;-76
2022/10/17 05:10:17;;;;;;;8.57;5.30;;;10.30;99.90;9.60;101284;;;;553916;255;24146;-81
2022/10/17 05:12:45;;;;;;;11.50;5.83;;;10.40;99.90;9.60;101282;;;;553754;255;24162;-81
2022/10/17 05:15:13;;;;;;;8.93;6.27;;;10.40;99.90;9.60;101283;;;;553630;255;24170;-77
2022/10/17 05:17:41;;;;;;;7.33;5.37;;;10.40;99.90;9.70;101284;;;;553409;255;24144;-76
2022/10/17 05:20:09;;;;;;;7.07;5.60;;;10.40;99.90;9.70;101285;;;;553684;255;24167;-77
2022/10/17 05:22:38;;;;;;;8.43;5.80;;;10.40;99.90;9.70;101284;;;;561345;255;24151;-77
2022/10/17 05:25:09;;;;;;;9.57;5.53;;;10.50;99.90;9.70;101289;;;;553733;255;24140;-78
2022/10/17 05:27:33;;;;;;;9.50;5.90;;;10.50;99.90;9.80;101281;;;;560914;251;24163;-77
2022/10/17 05:30:01;;;;;;;6.97;6.00;;;10.50;99.90;9.80;101292;;;;553741;255;24156;-77
2022/10/17 05:32:30;;;;;;;8.03;5.60;;;10.50;99.90;9.80;101301;;;;553641;251;24163;-77
2022/10/17 05:34:58;;;;;;;16.00;7.13;;;10.50;99.90;9.80;101298;;;;553891;253;24279;-78
2022/10/17 05:37:26;;;;;;;8.00;6.17;;;10.50;99.90;9.80;101289;;;;555030;255;24143;-78
2022/10/17 05:39:54;;;;;;;8.47;5.43;;;10.60;99.90;9.90;101301;;;;554577;255;24179;-77
2022/10/17 05:42:21;;;;;;;8.80;6.63;;;10.60;99.90;9.90;101305;;;;554310;255;24305;-77
2022/10/17 05:44:49;;;;;;;11.53;7.07;;;10.60;99.90;9.90;101301;;;;554547;255;24207;-78
2022/10/17 05:47:18;;;;;;;10.67;6.07;;;10.70;99.90;10.00;101307;;;;554232;255;24203;-80
2022/10/17 05:49:47;;;;;;;8.73;6.90;;;10.70;99.90;10.00;101306;;;;554155;255;24165;-77
2022/10/17 05:52:15;;;;;;;10.23;6.80;;;10.70;99.90;10.00;101306;;;;554130;255;24370;-77
2022/10/17 05:54:43;;;;;;;10.93;7.90;;;10.80;99.90;10.10;101309;;;;553879;255;24180;-77
2022/10/17 05:57:10;;;;;;;8.87;6.17;;;10.80;99.90;10.10;101315;;;;553943;255;24182;-77
2022/10/17 05:59:38;;;;;;;11.50;7.07;;;10.90;99.90;10.20;101320;;;;553885;255;24045;-77
2022/10/17 06:02:06;;;;;;;9.27;5.93;;;10.90;99.90;10.30;101324;;;;552337;255;24145;-77
2022/10/17 06:04:34;;;;;;;8.67;6.20;;;11.00;99.90;10.30;101324;;;;555904;255;24117;-76
2022/10/17 06:07:02;;;;;;;7.17;5.97;;;11.10;99.90;10.40;101318;;;;553777;257;24201;-77
2022/10/17 06:09:31;;;;;;;11.00;6.07;;;11.30;99.90;10.50;101303;;;;543685;259;24187;-77
2022/10/17 06:11:59;;;;;;;9.67;6.20;;;11.20;99.90;10.70;101296;;;;563135;250;24155;-77
2022/10/17 06:14:27;;;;;;;11.00;6.20;;;11.30;99.90;10.90;101315;;;;553570;255;24185;-76
2022/10/17 06:16:55;;;;;;;8.00;6.40;;;11.80;99.90;11.10;101319;;;;561850;255;24178;-75
2022/10/17 06:19:24;;;;;;;10.03;7.33;;;12.00;99.90;11.40;101318;;;;557173;255;24151;-76
2022/10/17 06:21:53;;;;;;;12.73;7.63;;;12.20;99.90;11.60;101319;;;;553613;255;24216;-76
2022/10/17 06:24:21;;;;;;;10.10;7.53;;;12.50;99.90;11.80;101325;;;;553843;255;24210;-76
2022/10/17 06:26:50;;;;;;;11.17;7.97;;;12.60;99.90;12.00;101339;;;;554021;255;24141;-77
2022/10/17 06:29:18;;;;;;;12.83;7.90;;;12.70;99.90;12.20;101337;;;;553814;250;24204;-76
2022/10/17 06:31:47;;;;;;;9.20;8.23;;;12.90;99.90;12.20;101347;;;;556481;254;24171;-79
2022/10/17 06:34:15;;;;;;;15.57;8.50;;;12.80;99.90;12.00;101351;;;;562764;251;24149;-76
2022/10/17 06:36:43;;;;;;;15.47;8.77;;;12.80;99.90;11.90;101345;;;;553507;254;24152;-76
2022/10/17 06:39:11;;;;;;;8.80;7.90;;;12.70;99.90;12.00;101352;;;;566734;248;24184;-76
2022/10/17 06:41:43;;;;;;;12.93;9.50;;;12.80;99.90;12.30;101359;;;;566769;248;24169;-77
2022/10/17 06:44:10;;;;;;;13.30;9.60;;;13.00;99.90;12.60;101373;;;;562553;251;24108;-76
2022/10/17 06:46:35;;;;;;;11.43;10.00;;;13.20;99.90;13.20;101372;;;;551597;252;24164;-78
2022/10/17 06:49:03;;;;;;;11.17;8.20;;;13.80;99.90;14.30;101381;;;;571206;246;24125;-78
2022/10/17 06:51:31;;;;;;;11.03;7.43;;;14.80;99.90;14.30;101382;;;;544551;256;24185;-78
2022/10/17 06:54:02;;;;;;;8.17;5.70;;;15.00;99.90;14.20;101376;;;;571564;246;24075;-77
2022/10/17 06:56:27;;;;;;;13.20;5.57;;;15.10;99.90;14.30;101373;;;;550174;259;24139;-78
2022/10/17 06:58:55;;;;;;;7.83;5.80;;;15.20;99.90;15.20;101380;;;;560020;246;24222;-79
2022/10/17 07:01:22;;;;;;;11.40;5.93;;;15.60;99.90;16.00;101379;;;;567686;250;24116;-78
2022/10/17 07:03:51;;;;;;;7.37;5.10;;;16.40;99.90;16.00;101384;;;;566627;250;24120;-80
2022/10/17 07:06:18;;;;;;;9.73;5.23;;;16.70;99.90;16.80;101385;;;;566109;250;24160;-84
2022/10/17 07:08:47;;;;;;;16.83;5.30;;;17.30;99.90;17.40;101386;;;;567527;250;24140;-79
2022/10/17 07:11:15;;;;;;;18.07;3.97;;;18.00;99.90;18.10;101397;;;;566588;250;24200;-79
2022/10/17 07:13:43;;;;;;;13.17;4.23;;;18.70;99.90;18.30;101399;;;;568916;249;24109;-79
2022/10/17 07:16:11;;;;;;;15.20;3.67;;;19.20;99.90;18.00;101392;;;;565544;250;24159;-78
2022/10/17 07:18:43;;;;;;;16.67;4.40;;;19.10;99.90;17.70;101389;;;;564150;250;24153;-79
2022/10/17 07:21:07;;;;;;;7.90;3.30;;;18.90;99.90;17.40;101398;;;;563900;250;24223;-77
2022/10/17 07:23:38;;;;;;;7.33;2.77;;;18.70;99.90;17.50;101402;;;;563713;250;24230;-78
2022/10/17 07:26:08;;;;;;;9.57;3.63;;;18.50;99.90;19.10;101403;;;;567450;250;24107;-80
2022/10/17 07:28:37;;;;;;;9.97;3.07;;;19.50;99.90;20.60;101397;;;;572594;250;24114;-79
2022/10/17 07:31:08;;;;;;;9.40;3.13;;;20.90;99.90;22.50;101404;;;;563612;250;24154;-80
2022/10/17 07:33:36;;;;;;;9.57;2.87;;;24.70;99.90;24.20;101401;;;;564030;250;24142;-82
2022/10/17 07:36:08;;;;;;;4.97;2.80;;;24.60;99.90;24.20;101389;;;;566211;247;24065;-78
2022/10/17 07:38:32;;;;;;;13.77;3.93;;;25.00;99.90;24.30;101387;;;;571245;247;24099;-76
2022/10/17 07:41:00;;;;;;;7.37;3.17;;;25.20;99.90;25.00;101385;;;;572070;247;24120;-78
2022/10/17 07:43:28;;;;;;;16.77;4.80;;;25.80;99.90;24.40;101391;;;;571859;247;24094;-79
2022/10/17 07:45:56;;;;;;;21.03;4.90;;;25.50;99.90;23.10;101396;;;;569441;247;24061;-79
2022/10/17 07:48:24;;;;;;;10.33;5.13;;;24.70;99.90;22.20;101402;;;;572428;247;24084;-80
2022/10/17 07:50:52;;;;;;;20.07;5.00;;;23.80;99.90;21.60;101403;;;;569651;247;23134;-78
2022/10/17 07:53:20;;;;;;;12.47;4.87;;;23.20;99.90;21.00;101400;;;;569495;247;24098;-79
2022/10/17 07:55:48;;;;;;;7.50;4.10;;;22.50;99.90;20.50;101397;;;;572477;247;24080;-78
2022/10/17 07:58:15;;;;;;;10.07;4.30;;;21.80;99.90;20.20;101396;;;;572573;245;24069;-78
2022/10/17 08:00:47;;;;;;;10.00;4.20;;;21.00;99.90;20.00;101401;;;;573294;246;23158;-78
2022/10/17 08:03:17;;;;;;;11.17;3.57;;;21.00;99.90;20.10;101411;;;;573073;246;23135;-78
2022/10/17 08:05:41;;;;;;;8.20;3.87;;;20.90;99.90;20.10;101416;;;;572582;242;24169;-78
2022/10/17 08:08:10;;;;;;;6.50;3.27;;;20.90;99.90;20.00;101411;;;;572935;246;23160;-79
2022/10/17 08:10:38;;;;;;;7.80;3.53;;;20.80;99.90;19.90;101411;;;;572742;246;23125;-78
2022/10/17 08:13:08;;;;;;;7.80;3.10;;;20.80;99.90;19.80;101414;;;;572659;246;24177;-80
2022/10/17 08:15:35;;;;;;;9.80;3.80;;;20.60;99.90;20.30;101407;;;;567741;246;35285;-80
2022/10/17 08:18:05;;;;;;;10.07;2.90;;;20.80;99.90;22.20;101416;;;;570722;246;24135;-84
2022/10/17 08:20:35;;;;;;;9.60;3.23;;;22.30;99.90;24.90;101404;;;;561212;249;24126;-80
2022/10/17 08:23:03;;;;;;;7.27;2.97;;;24.80;99.90;26.90;101414;;;;562276;254;24142;-79
2022/10/17 08:25:32;;;;;;;8.63;2.70;;;27.00;99.60;28.60;101421;;;;561826;255;23238;-82
2022/10/17 08:27:59;;;;;;;9.00;2.80;;;28.80;92.20;28.80;101414;;;;557563;253;23215;-79
2022/10/17 08:30:29;;;;;;;6.27;2.40;;;29.50;86.10;28.30;101414;;;;558112;255;24153;-81
2022/10/17 08:32:55;;;;;;;5.67;2.70;;;29.50;80.50;27.50;101408;;;;562343;249;23181;-78
2022/10/17 08:35:23;;;;;;;4.30;2.03;;;29.00;79.00;26.80;101401;;;;561520;251;24169;-78
2022/10/17 08:37:51;;;;;;;3.93;2.13;;;28.30;79.20;26.60;101411;;;;562175;255;23152;-79
2022/10/17 08:40:20;;;;;;;7.10;2.20;;;27.80;79.70;26.70;101414;;;;553280;255;23221;-80
2022/10/17 08:43:24;;;;;;;6.77;2.40;;;27.70;81.00;27.20;101419;;;;552525;255;24242;-79
2022/10/17 08:45:52;;;;;;;8.47;2.90;;;27.90;79.90;28.70;101416;;;;539950;263;23174;-81
2022/10/17 08:48:20;;;;;;;36.27;5.27;;;29.70;73.00;28.90;101408;;;;562331;251;24236;-80
2022/10/17 08:50:55;;;;;;;13.87;3.10;;;29.30;72.20;28.00;101399;;;;546297;259;23176;-80
2022/10/17 08:53:29;;;;;;;7.33;2.90;;;29.20;72.10;26.50;101403;;;;559053;253;23127;-79
2022/10/17 08:55:58;;;;;;;5.77;2.83;;;26.80;76.10;25.00;101409;;;;552385;255;23147;-80
2022/10/17 08:58:32;;;;;;;3.80;2.93;;;26.70;76.10;24.10;101404;;;;573860;250;24167;-79
2022/10/17 09:01:22;;;;;;;6.40;3.00;;;25.70;80.00;23.20;101409;;;;534464;263;24224;-79
2022/10/17 09:03:58;;;;;;;7.27;3.50;;;23.60;87.50;22.50;101420;;;;562557;246;23107;-80
2022/10/17 09:06:32;;;;;;;16.80;4.17;;;23.60;87.50;21.90;101414;;;;573477;250;24112;-80
2022/10/17 09:09:28;;;;;;;11.03;3.80;;;23.00;90.30;21.60;101406;;;;551217;251;24145;-80
2022/10/17 09:12:19;;;;;;;14.20;3.67;;;22.50;91.70;21.50;101412;;;;571856;250;24095;-79
2022/10/17 09:15:18;;;;;;;23.63;5.77;;;22.20;93.00;21.70;101397;;;;554491;254;24144;-79
2022/10/17 09:17:57;;;;;;;15.03;3.70;;;22.40;93.70;22.00;101400;;;;563668;254;24127;-78
2022/10/17 09:20:25;;;;;;;14.63;4.07;;;22.60;94.60;22.50;101401;;;;555049;255;24145;-79
2022/10/17 09:23:04;;;;;;;7.20;3.50;;;23.00;93.70;22.30;101395;;;;573822;250;24186;-79
2022/10/17 09:25:34;;;;;;;9.93;3.80;;;23.00;93.70;21.80;101399;;;;548412;255;24197;-81
2022/10/17 09:28:13;;;;;;;6.87;3.30;;;22.70;93.70;21.30;101398;;;;573105;247;24174;-80
2022/10/17 09:30:47;;;;;;;10.23;3.70;;;22.20;94.30;21.00;101397;;;;556798;250;24098;-82
2022/10/17 09:33:18;;;;;;;10.93;4.30;;;21.80;95.70;21.20;101399;;;;579617;247;24099;-80
2022/10/17 09:35:49;;;;;;;11.53;4.83;;;21.90;96.60;21.60;101396;;;;548656;259;23175;-78
2022/10/17 09:38:13;;;;;;;9.07;4.47;;;22.10;96.80;22.00;101394;;;;565601;249;24124;-82
2022/10/17 09:40:41;;;;;;;6.93;4.70;;;22.50;96.80;22.60;101392;;;;557204;251;24187;-81
2022/10/17 09:43:10;;;;;;;5.47;4.37;;;23.20;95.80;22.80;101393;;;;575275;246;24102;-81
2022/10/17 09:45:46;;;;;;;7.33;5.10;;;23.70;94.80;22.60;101390;;;;545096;253;35720;-80
2022/10/17 09:48:26;;;;;;;8.07;4.87;;;23.60;94.20;22.20;101393;;;;569630;246;24034;-84
2022/10/17 09:50:53;;;;;;;12.37;5.60;;;23.30;94.30;22.80;101389;;;;541770;258;24193;-84
2022/10/17 09:53:24;;;;;;;13.73;6.10;;;23.50;94.70;23.50;101392;;;;555786;255;24188;-82
2022/10/17 09:55:55;;;;;;;18.93;6.50;;;24.10;93.50;24.10;101407;;;;564611;250;24068;-82
2022/10/17 09:58:26;;;;;;;9.07;5.47;;;24.70;92.90;24.40;101411;;;;558923;255;24196;-83
2022/10/17 10:00:51;;;;;;;9.57;5.50;;;25.10;92.50;23.90;101407;;;;561362;255;24169;-81
2022/10/17 10:03:19;;;;;;;18.23;5.33;;;24.70;92.30;23.50;101406;;;;575727;246;24114;-79
2022/10/17 10:05:59;;;;;;;9.10;4.80;;;24.60;92.30;22.90;101408;;;;553968;254;24196;-79
2022/10/17 10:08:27;;;;;;;9.87;5.20;;;24.10;92.80;22.20;101401;;;;551450;255;24105;-80
2022/10/17 10:10:58;;;;;;;6.00;5.40;;;23.40;94.00;21.80;101399;;;;567633;250;24097;-81
2022/10/17 10:13:29;;;;;;;11.27;5.97;;;22.80;95.00;21.40;101400;;;;553158;255;24207;-80
2022/10/17 10:15:54;;;;;;;9.57;5.10;;;22.40;96.10;21.00;101389;;;;563552;250;24092;-79
2022/10/17 10:18:25;;;;;;;6.87;5.20;;;22.00;97.20;20.80;101395;;;;556422;255;24191;-80
2022/10/17 10:21:13;;;;;;;8.73;6.17;;;21.70;98.20;20.70;101395;;;;551516;259;24169;-80
2022/10/17 10:23:41;;;;;;;10.07;5.73;;;21.50;99.10;20.40;101388;;;;554050;255;24208;-80
2022/10/17 10:26:25;;;;;;;6.40;5.47;;;21.20;99.70;20.00;101380;;;;559846;254;24169;-80
2022/10/17 10:29:02;;;;;;;9.23;6.17;;;20.80;99.90;19.70;101385;;;;556409;254;24229;-78
2022/10/17 10:31:37;;;;;;;8.97;5.63;;;20.50;99.90;19.60;101382;;;;564575;254;24176;-80
2022/10/17 10:34:01;;;;;;;10.30;5.73;;;20.30;99.90;19.60;101377;;;;555498;254;24179;-82
2022/10/17 10:36:43;;;;;;;10.17;5.60;;;20.20;99.90;19.70;101382;;;;556150;254;24133;-81
2022/10/17 10:39:12;;;;;;;7.13;6.30;;;20.30;99.90;20.00;101382;;;;564093;254;24207;-80
2022/10/17 10:41:45;;;;;;;10.40;6.40;;;20.40;99.90;20.10;101382;;;;557839;254;24153;-81
2022/10/17 10:44:13;;;;;;;8.77;6.30;;;20.60;99.90;20.20;101381;;;;555889;254;24192;-82
2022/10/17 10:46:41;;;;;;;13.27;6.57;;;20.80;99.90;20.30;101379;;;;559519;251;24193;-82
2022/10/17 10:49:09;;;;;;;8.90;6.10;;;20.80;99.90;20.40;101384;;;;555731;254;24126;-81
2022/10/17 10:51:43;;;;;;;8.60;6.73;;;21.00;99.90;20.40;101376;;;;555287;254;23187;-81
2022/10/17 10:54:17;;;;;;;10.73;7.03;;;21.10;99.90;20.50;101373;;;;555244;254;23151;-78
2022/10/17 10:56:54;;;;;;;15.03;6.80;;;21.10;99.90;20.40;101373;;;;555178;254;24161;-84
2022/10/17 10:59:24;;;;;;;16.37;7.43;;;21.00;99.90;20.30;101370;;;;543191;258;23176;-81
2022/10/17 11:02:14;;;;;;;10.27;7.10;;;20.90;99.90;20.10;101357;;;;553240;255;24169;-81
2022/10/17 11:05:08;;;;;;;15.00;7.37;;;20.80;99.90;19.80;101351;;;;563454;251;24128;-77
2022/10/17 11:07:41;;;;;;;10.60;7.07;;;20.50;99.90;19.50;101350;;;;553761;255;24166;-77
2022/10/17 11:10:31;;;;;;;18.47;7.83;;;20.20;99.90;19.40;101361;;;;561730;255;24170;-77
2022/10/17 11:13:19;;;;;;;20.63;7.67;;;20.00;99.90;19.20;101356;;;;553601;255;24176;-76
2022/10/17 11:16:32;;;;;;;10.50;6.80;;;19.80;99.90;19.00;101344;;;;553539;255;24135;-76
2022/10/17 11:19:16;;;;;;;17.10;8.07;;;19.60;99.90;19.00;101342;;;;553424;255;24178;-77
2022/10/17 11:21:59;;;;;;;17.70;7.80;;;19.60;99.90;18.90;101333;;;;553144;255;24159;-77
2022/10/17 11:24:35;;;;;;;10.83;7.40;;;19.50;99.90;18.90;101331;;;;552925;255;24261;-78
2022/10/17 11:27:07;;;;;;;9.80;7.20;;;19.60;99.90;19.00;101326;;;;562496;251;24143;-83
2022/10/17 11:29:35;;;;;;;12.33;6.90;;;19.60;99.90;19.10;101315;;;;553400;255;24174;-83
2022/10/17 11:32:08;;;;;;;9.73;7.67;;;19.60;99.90;19.20;101319;;;;553905;255;24179;-83
2022/10/17 11:34:36;;;;;;;9.33;8.13;;;19.80;99.90;19.30;101317;;;;554710;254;23170;-78